createdAt,value
2018-08-18T00:05:21.680Z,21.46
2018-08-18T00:08:10.464Z,21.45
2018-08-18T00:10:57.980Z,21.47
2018-08-18T00:13:46.022Z,21.48
2018-08-18T00:16:33.248Z,22.17
2018-08-18T00:22:36.717Z,21.59
2018-08-18T00:25:24.535Z,22.26
2018-08-18T00:28:11.896Z,21.70
2018-08-18T00:30:59.649Z,21.57
2018-08-18T00:33:46.982Z,21.48
2018-08-18T00:42:59.448Z,21.31
2018-08-18T00:45:46.858Z,21.30
2018-08-18T00:48:37.597Z,21.29
2018-08-18T00:51:25.218Z,21.32
2018-08-18T00:54:12.450Z,21.32
2018-08-18T00:57:01.106Z,21.34
2018-08-18T00:59:48.529Z,21.31
2018-08-18T01:02:36.851Z,21.31
2018-08-18T01:05:24.000Z,21.98
2018-08-18T01:11:22.930Z,21.44
2018-08-18T02:16:49.380Z,21.04
2018-08-18T02:32:15.198Z,21.16
2018-08-18T02:53:52.617Z,20.02
2018-08-18T02:56:40.323Z,19.97
2018-08-18T03:33:53.185Z,19.87
2018-08-18T03:36:41.864Z,19.83
2018-08-18T03:39:30.904Z,19.80
2018-08-18T03:51:40.652Z,19.76
2018-08-18T04:00:48.466Z,20.09
2018-08-18T04:03:36.969Z,19.94
2018-08-18T04:06:25.033Z,20.57
2018-08-18T04:09:13.682Z,20.05
2018-08-18T04:12:01.667Z,19.94
2018-08-18T04:14:49.031Z,19.87
2018-08-18T04:17:37.013Z,19.83
2018-08-18T04:23:33.054Z,19.79
2018-08-18T04:26:20.340Z,19.81
2018-08-18T04:29:09.491Z,19.86
2018-08-18T04:31:57.930Z,19.89
2018-08-18T04:34:45.089Z,19.95
2018-08-18T04:37:32.378Z,20.01
2018-08-18T04:40:20.013Z,20.05
2018-08-18T04:43:07.223Z,20.09
2018-08-18T04:45:54.657Z,20.15
2018-08-18T04:48:42.285Z,20.22
2018-08-18T05:04:14.496Z,20.54
2018-08-18T05:07:02.239Z,20.62
2018-08-18T05:09:50.020Z,20.72
2018-08-18T05:12:37.625Z,20.78
2018-08-18T05:15:25.227Z,20.79
2018-08-18T05:18:12.706Z,20.89
2018-08-18T05:21:00.499Z,20.95
2018-08-18T05:23:48.002Z,21.00
2018-08-18T05:26:50.988Z,21.05
2018-08-18T05:29:38.609Z,21.10
2018-08-18T05:32:26.197Z,21.15
2018-08-18T05:35:13.599Z,21.22
2018-08-18T05:38:01.275Z,21.26
2018-08-18T05:40:48.858Z,22.07
2018-08-18T05:43:36.905Z,21.58
2018-08-18T05:46:24.944Z,21.55
2018-08-18T05:49:12.218Z,21.56
2018-08-18T05:52:03.828Z,21.64
2018-08-18T05:54:51.786Z,21.69
2018-08-18T05:57:39.638Z,21.74
2018-08-18T06:00:27.162Z,21.87
2018-08-18T06:03:14.853Z,21.93
2018-08-18T06:09:11.387Z,22.03
2018-08-18T06:11:59.113Z,22.11
2018-08-18T06:14:49.603Z,22.23
2018-08-18T06:17:37.272Z,22.34
2018-08-18T06:20:25.451Z,22.39
2018-08-18T06:23:13.363Z,22.36
2018-08-18T06:26:01.211Z,22.42
2018-08-18T06:28:51.552Z,22.42
2018-08-18T06:31:39.318Z,22.49
2018-08-18T06:34:27.517Z,22.56
2018-08-18T06:40:31.683Z,22.89
2018-08-18T06:43:27.865Z,22.84
2018-08-18T06:46:18.678Z,22.91
2018-08-18T06:49:06.610Z,22.98
2018-08-18T06:51:54.854Z,23.07
2018-08-18T06:54:42.295Z,23.14
2018-08-18T06:57:30.006Z,23.14
2018-08-18T07:00:18.094Z,24.13
2018-08-18T07:03:05.988Z,23.60
2018-08-18T07:05:53.764Z,23.56
2018-08-18T07:08:41.912Z,23.52
2018-08-18T07:11:29.876Z,23.51
2018-08-18T07:17:23.625Z,23.45
2018-08-18T07:20:11.474Z,23.44
2018-08-18T07:22:59.007Z,23.58
2018-08-18T07:25:47.094Z,23.66
2018-08-18T07:28:34.974Z,23.73
2018-08-18T07:31:22.865Z,23.87
2018-08-18T07:43:30.003Z,24.60
2018-08-18T07:46:17.412Z,24.65
2018-08-18T07:49:05.766Z,24.76
2018-08-18T07:51:55.307Z,24.83
2018-08-18T07:54:46.089Z,24.86
2018-08-18T07:57:42.200Z,24.96
2018-08-18T08:00:39.134Z,26.22
2018-08-18T08:03:27.381Z,25.70
2018-08-18T08:06:19.697Z,26.75
2018-08-18T09:08:15.239Z,28.62
2018-08-18T09:45:21.568Z,28.47
2018-08-18T09:54:24.026Z,28.95
2018-08-18T10:19:00.091Z,29.31
2018-08-18T11:15:05.759Z,31.98
2018-08-18T12:35:53.561Z,32.78
2018-08-18T12:54:21.151Z,32.97
2018-08-18T13:53:28.385Z,31.09
2018-08-18T14:02:43.660Z,31.47
2018-08-18T14:11:44.303Z,32.61
2018-08-18T14:20:48.792Z,30.79
2018-08-18T15:35:18.236Z,35.82
2018-08-18T15:38:05.284Z,35.73
2018-08-18T15:40:52.948Z,35.53
2018-08-18T16:14:57.359Z,37.37
2018-08-18T16:17:45.479Z,37.42
2018-08-18T16:20:33.709Z,37.45
2018-08-18T17:13:36.975Z,30.99
2018-08-18T17:16:24.828Z,30.73
2018-08-18T17:19:12.415Z,30.51
2018-08-18T17:22:00.323Z,30.37
2018-08-18T17:49:45.051Z,28.35
2018-08-18T18:11:29.972Z,26.71
2018-08-18T18:17:30.475Z,26.34
2018-08-18T18:20:18.279Z,26.15
2018-08-18T18:29:18.323Z,25.61
2018-08-18T18:32:08.065Z,26.27
2018-08-18T19:30:58.445Z,23.34
2018-08-18T20:17:36.404Z,21.88
2018-08-18T22:28:37.718Z,19.55
2018-08-18T22:37:38.413Z,19.62
2018-08-18T22:46:39.099Z,19.36
2018-08-18T23:26:48.166Z,18.77
